Time;durP1;ratioP1;P1;durP2;ratioP2;P2;SDS_P1;SDS_P2;PMS_P1;PMS_P2;Temp;Humidity;BMP_temperature;BMP_pressure;BME280_temperature;BME280_humidity;BME280_pressure;Samples;Min_cycle;Max_cycle;Signal;HPM_P1;HPM_P2
2022/07/07 00:01:29;;;;;;;3.15;1.83;;;21.20;98.40;;;;;;5004259;28;20494;-76
2022/07/07 00:03:55;;;;;;;4.35;1.38;;;21.30;98.20;;;;;;5003494;28;20042;-75
2022/07/07 00:06:21;;;;;;;4.55;1.63;;;21.30;98.10;;;;;;5007336;28;20451;-75
2022/07/07 00:08:47;;;;;;;2.75;1.40;;;21.20;98.30;;;;;;5008165;28;20417;-75
2022/07/07 00:11:15;;;;;;;3.60;1.77;;;21.20;98.40;;;;;;5010883;28;20038;-75
2022/07/07 00:13:42;;;;;;;3.47;1.58;;;21.30;98.10;;;;;;4993544;28;20034;-76
2022/07/07 00:16:08;;;;;;;3.30;1.92;;;21.30;98.20;;;;;;5010675;28;20029;-75
2022/07/07 00:18:34;;;;;;;3.33;1.70;;;21.40;97.80;;;;;;5009974;28;20084;-76
2022/07/07 00:21:00;;;;;;;2.08;1.17;;;21.60;97.40;;;;;;5007170;28;20026;-75
2022/07/07 00:23:26;;;;;;;3.50;1.55;;;21.70;97.30;;;;;;5011090;28;20508;-75
2022/07/07 00:25:53;;;;;;;2.72;1.63;;;21.60;97.50;;;;;;5009848;28;20080;-76
2022/07/07 00:28:18;;;;;;;4.20;1.40;;;21.60;97.40;;;;;;5009924;28;20504;-76
2022/07/07 00:30:44;;;;;;;2.70;1.67;;;21.60;97.40;;;;;;5007672;28;20050;-76
2022/07/07 00:33:10;;;;;;;3.28;1.60;;;21.60;97.20;;;;;;5007345;28;20432;-76
2022/07/07 00:35:35;;;;;;;2.92;1.50;;;21.70;97.30;;;;;;5008752;28;20096;-76
2022/07/07 00:38:01;;;;;;;4.35;1.70;;;21.60;97.40;;;;;;5009027;28;20467;-76
2022/07/07 00:40:27;;;;;;;2.80;1.40;;;21.50;97.50;;;;;;5010426;28;20050;-76
2022/07/07 00:42:53;;;;;;;3.10;1.63;;;21.50;97.60;;;;;;5010405;28;20080;-76
2022/07/07 00:45:18;;;;;;;3.65;1.50;;;21.50;97.10;;;;;;5009287;28;20473;-76
2022/07/07 00:47:44;;;;;;;3.58;1.20;;;21.50;96.90;;;;;;5009842;28;20057;-75
2022/07/07 00:50:10;;;;;;;2.78;1.58;;;21.60;97.40;;;;;;5014400;28;20094;-76
2022/07/07 00:52:37;;;;;;;3.28;1.63;;;21.40;97.80;;;;;;5012556;28;20068;-76
2022/07/07 00:55:03;;;;;;;2.55;1.58;;;21.40;97.70;;;;;;5013879;28;20037;-76
2022/07/07 00:57:30;;;;;;;4.07;1.60;;;21.40;97.80;;;;;;5023744;28;20568;-75
2022/07/07 01:00:01;;;;;;;2.90;1.70;;;21.30;98.00;;;;;;5010465;28;20030;-76
2022/07/07 01:02:29;;;;;;;6.00;2.28;;;21.20;98.30;;;;;;5011257;28;20037;-76
2022/07/07 01:04:58;;;;;;;2.65;1.50;;;21.00;98.40;;;;;;5009945;28;20112;-76
2022/07/07 01:07:24;;;;;;;4.15;1.52;;;21.10;98.10;;;;;;5010007;28;20030;-76
2022/07/07 01:09:50;;;;;;;3.72;1.40;;;21.10;98.10;;;;;;5010162;28;20699;-76
2022/07/07 01:12:16;;;;;;;4.20;1.50;;;21.30;97.40;;;;;;5011856;28;20038;-75
2022/07/07 01:14:42;;;;;;;3.78;1.67;;;21.30;97.40;;;;;;5012695;28;20044;-75
2022/07/07 01:17:07;;;;;;;3.90;1.63;;;21.30;97.80;;;;;;5013395;28;20519;-75
2022/07/07 01:19:33;;;;;;;3.63;1.52;;;21.10;97.80;;;;;;5013718;28;20381;-75
2022/07/07 01:22:03;;;;;;;4.32;1.60;;;21.10;98.00;;;;;;5011385;28;20057;-75
2022/07/07 01:24:30;;;;;;;3.30;1.63;;;21.00;98.30;;;;;;5011335;28;20551;-75
2022/07/07 01:27:07;;;;;;;4.05;1.40;;;21.00;98.50;;;;;;5012379;28;20062;-75
2022/07/07 01:29:37;;;;;;;3.92;2.10;;;20.90;98.50;;;;;;5012963;28;20076;-75
2022/07/07 01:32:10;;;;;;;3.25;1.60;;;20.90;99.10;;;;;;5011648;28;20112;-76
2022/07/07 01:34:40;;;;;;;3.78;1.42;;;20.90;99.20;;;;;;5012589;28;20558;-75
2022/07/07 01:37:07;;;;;;;3.65;1.60;;;20.90;98.60;;;;;;5011004;28;20061;-75
2022/07/07 01:39:33;;;;;;;2.85;1.55;;;20.90;98.70;;;;;;5009479;28;20057;-75
2022/07/07 01:41:59;;;;;;;3.92;1.92;;;21.00;98.60;;;;;;5014984;28;20030;-75
2022/07/07 01:44:25;;;;;;;3.58;1.90;;;21.00;98.30;;;;;;5011967;28;20103;-75
2022/07/07 01:46:50;;;;;;;3.72;1.35;;;21.10;98.00;;;;;;5012003;28;20057;-74
2022/07/07 01:49:17;;;;;;;3.80;2.03;;;21.10;98.10;;;;;;5012668;28;20041;-75
2022/07/07 01:51:42;;;;;;;3.88;1.83;;;21.10;98.10;;;;;;5013756;28;20118;-76
2022/07/07 01:54:08;;;;;;;3.25;1.52;;;21.10;98.10;;;;;;5009187;28;20458;-75
2022/07/07 01:56:34;;;;;;;3.53;1.80;;;21.10;98.00;;;;;;5010291;28;20038;-75
2022/07/07 01:58:59;;;;;;;3.05;1.77;;;21.20;97.80;;;;;;5012312;28;20026;-75
2022/07/07 02:01:25;;;;;;;3.05;1.60;;;21.20;97.80;;;;;;5011361;28;20030;-75
2022/07/07 02:03:51;;;;;;;2.50;1.33;;;21.10;98.30;;;;;;5012400;28;20026;-75
2022/07/07 02:06:16;;;;;;;5.68;1.70;;;21.00;98.30;;;;;;5010839;28;20073;-75
2022/07/07 02:08:42;;;;;;;2.70;1.60;;;21.20;98.00;;;;;;5010688;28;20026;-75
2022/07/07 02:11:14;;;;;;;3.08;1.92;;;21.30;97.90;;;;;;5012503;28;20041;-75
2022/07/07 02:13:41;;;;;;;2.85;1.50;;;21.20;98.00;;;;;;5011793;28;20029;-76
2022/07/07 02:16:07;;;;;;;2.90;1.58;;;21.10;98.30;;;;;;5010311;28;20107;-75
2022/07/07 02:18:38;;;;;;;2.78;1.70;;;21.10;97.80;;;;;;5011500;28;20025;-75
2022/07/07 02:21:05;;;;;;;4.40;2.53;;;21.30;97.60;;;;;;5012863;28;20045;-76
2022/07/07 02:23:32;;;;;;;3.58;1.95;;;21.30;97.50;;;;;;5012938;28;20499;-75
2022/07/07 02:25:57;;;;;;;3.20;1.95;;;21.40;97.70;;;;;;5010922;28;20469;-76
2022/07/07 02:28:23;;;;;;;3.72;1.88;;;21.30;97.90;;;;;;5019461;28;20025;-75
2022/07/07 02:30:55;;;;;;;3.83;1.90;;;21.30;98.00;;;;;;5008193;28;20057;-76
2022/07/07 02:33:22;;;;;;;4.47;2.25;;;21.30;98.00;;;;;;5008486;28;20033;-75
2022/07/07 02:35:49;;;;;;;2.60;1.38;;;21.20;98.00;;;;;;5011268;28;20034;-75
2022/07/07 02:38:15;;;;;;;3.53;2.05;;;21.30;97.80;;;;;;5011698;28;20033;-75
2022/07/07 02:40:41;;;;;;;3.70;1.92;;;21.40;97.70;;;;;;5009804;28;20029;-75
2022/07/07 02:43:12;;;;;;;3.38;1.85;;;21.40;97.60;;;;;;5013877;28;20562;-75
2022/07/07 02:45:48;;;;;;;3.75;1.90;;;21.50;97.60;;;;;;5012507;28;20476;-75
2022/07/07 02:48:16;;;;;;;3.20;1.92;;;21.50;97.40;;;;;;5011034;28;20602;-76
2022/07/07 02:50:41;;;;;;;3.45;1.60;;;21.50;97.20;;;;;;5008249;28;20083;-76
2022/07/07 02:53:09;;;;;;;3.40;2.00;;;21.60;97.10;;;;;;5013111;28;20038;-75
2022/07/07 02:55:36;;;;;;;4.28;2.20;;;21.60;96.90;;;;;;5010657;28;20042;-75
2022/07/07 02:58:03;;;;;;;2.95;1.77;;;21.70;96.80;;;;;;5012217;28;20040;-75
2022/07/07 03:00:29;;;;;;;3.67;1.88;;;21.80;96.60;;;;;;5008817;28;20084;-75
2022/07/07 03:02:55;;;;;;;3.78;1.80;;;21.80;96.70;;;;;;5006578;28;20080;-75
2022/07/07 03:05:22;;;;;;;2.97;1.80;;;21.90;96.60;;;;;;5007015;28;20029;-75
2022/07/07 03:07:48;;;;;;;3.17;1.60;;;21.90;96.80;;;;;;5004317;28;20040;-74
2022/07/07 03:10:14;;;;;;;4.28;2.10;;;21.70;96.80;;;;;;5002615;28;20041;-75
2022/07/07 03:12:40;;;;;;;3.85;1.80;;;21.70;96.80;;;;;;5006906;28;20030;-75
2022/07/07 03:15:07;;;;;;;3.95;2.08;;;21.80;97.00;;;;;;5005578;28;20419;-75
2022/07/07 03:17:34;;;;;;;3.80;1.98;;;21.70;96.90;;;;;;5001483;28;20064;-75
2022/07/07 03:19:59;;;;;;;3.25;1.80;;;21.70;96.90;;;;;;5004795;28;20229;-75
2022/07/07 03:22:25;;;;;;;3.83;1.85;;;21.70;97.20;;;;;;5002451;28;20706;-75
2022/07/07 03:24:51;;;;;;;5.30;1.90;;;21.70;97.10;;;;;;5002253;28;20036;-75
2022/07/07 03:27:17;;;;;;;3.80;2.30;;;21.70;97.10;;;;;;5001578;28;20034;-75
2022/07/07 03:29:42;;;;;;;3.92;1.90;;;21.70;97.20;;;;;;5005833;28;20033;-75
2022/07/07 03:32:08;;;;;;;3.88;1.80;;;21.60;97.30;;;;;;5005207;28;20029;-75
2022/07/07 03:34:34;;;;;;;3.63;2.05;;;21.60;97.30;;;;;;5003475;28;20030;-75
2022/07/07 03:36:59;;;;;;;3.83;1.70;;;21.60;97.00;;;;;;5007860;28;20033;-75
2022/07/07 03:39:25;;;;;;;2.88;1.60;;;21.70;96.80;;;;;;5004227;28;20112;-75
2022/07/07 03:41:51;;;;;;;3.85;1.73;;;21.70;96.90;;;;;;5008171;28;20053;-75
2022/07/07 03:44:17;;;;;;;3.03;1.67;;;21.70;97.20;;;;;;5001988;28;20456;-75
2022/07/07 03:46:44;;;;;;;6.35;1.95;;;21.60;96.80;;;;;;5001686;28;20030;-74
2022/07/07 03:49:10;;;;;;;3.50;1.77;;;21.60;96.80;;;;;;5003975;28;20515;-75
2022/07/07 03:51:36;;;;;;;3.60;2.30;;;21.70;96.70;;;;;;5002184;28;20046;-75
2022/07/07 03:54:02;;;;;;;3.25;2.00;;;21.70;96.70;;;;;;5005348;28;20037;-76
2022/07/07 03:56:28;;;;;;;3.33;1.95;;;21.70;97.00;;;;;;5006701;28;20030;-75
2022/07/07 03:58:54;;;;;;;3.05;2.03;;;21.60;96.90;;;;;;5001040;28;20084;-75
2022/07/07 04:01:19;;;;;;;3.47;1.85;;;21.50;97.10;;;;;;5004216;28;20030;-75
2022/07/07 04:03:45;;;;;;;3.05;1.85;;;21.60;96.80;;;;;;5001146;28;20139;-75
2022/07/07 04:06:11;;;;;;;3.40;1.70;;;21.60;97.20;;;;;;5001822;28;20030;-75
2022/07/07 04:08:36;;;;;;;4.70;1.77;;;21.50;97.60;;;;;;5002276;28;20029;-75
2022/07/07 04:11:02;;;;;;;3.60;1.58;;;21.60;97.20;;;;;;5000316;28;20038;-75
2022/07/07 04:13:28;;;;;;;2.58;1.42;;;21.60;97.00;;;;;;5004274;28;20034;-74
2022/07/07 04:15:56;;;;;;;3.28;1.67;;;21.70;96.60;;;;;;5000961;28;20046;-75
2022/07/07 04:18:22;;;;;;;4.28;2.22;;;21.70;96.70;;;;;;5002434;28;20096;-74
2022/07/07 04:20:48;;;;;;;6.70;2.22;;;21.80;96.60;;;;;;5001947;28;20038;-75
2022/07/07 04:23:14;;;;;;;3.45;1.80;;;21.80;96.80;;;;;;5005848;28;20099;-75
2022/07/07 04:25:40;;;;;;;4.57;2.03;;;21.70;97.30;;;;;;5008225;28;20034;-74
2022/07/07 04:28:06;;;;;;;3.20;1.60;;;21.70;97.40;;;;;;5008668;28;20038;-74
2022/07/07 04:30:32;;;;;;;3.15;2.13;;;21.70;97.10;;;;;;5007290;28;20072;-74
2022/07/07 04:32:58;;;;;;;2.92;2.10;;;21.60;97.20;;;;;;5007639;28;20037;-75
2022/07/07 04:35:24;;;;;;;3.13;1.92;;;21.60;97.40;;;;;;5005923;28;20045;-74
2022/07/07 04:37:50;;;;;;;4.05;1.90;;;21.50;97.30;;;;;;5006877;28;20660;-74
2022/07/07 04:40:15;;;;;;;4.35;1.88;;;21.60;97.50;;;;;;5005040;28;20561;-75
2022/07/07 04:42:41;;;;;;;3.42;1.73;;;21.60;97.40;;;;;;5006613;28;20033;-74
2022/07/07 04:45:07;;;;;;;3.63;1.75;;;21.60;97.20;;;;;;5004928;28;20113;-75
2022/07/07 04:47:41;;;;;;;3.00;1.75;;;21.60;97.30;;;;;;5005943;28;20041;-75
2022/07/07 04:50:08;;;;;;;;;;;21.60;97.20;;;;;;4999345;28;20495;-75
2022/07/07 04:52:33;;;;;;;3.80;1.70;;;21.60;97.50;;;;;;5005656;28;19909;-75
2022/07/07 04:54:59;;;;;;;2.95;1.95;;;21.60;97.30;;;;;;5004480;28;20033;-75
2022/07/07 04:57:25;;;;;;;4.40;1.70;;;21.50;97.40;;;;;;5005790;28;20057;-75
2022/07/07 04:59:50;;;;;;;5.22;2.00;;;21.50;97.60;;;;;;5002641;28;20607;-75
2022/07/07 05:02:16;;;;;;;3.60;1.67;;;21.60;97.70;;;;;;5004270;28;20057;-75
2022/07/07 05:04:42;;;;;;;7.45;1.88;;;21.50;97.80;;;;;;5006075;28;20068;-75
2022/07/07 05:07:07;;;;;;;2.47;1.40;;;21.60;97.90;;;;;;5000019;28;20118;-76
2022/07/07 05:09:34;;;;;;;3.20;1.92;;;21.60;97.80;;;;;;5003418;28;20041;-75
2022/07/07 05:12:01;;;;;;;3.83;1.90;;;21.60;98.00;;;;;;5004731;28;20041;-76
2022/07/07 05:14:26;;;;;;;5.65;1.95;;;21.60;98.00;;;;;;5007122;28;20037;-75
2022/07/07 05:16:52;;;;;;;3.88;1.90;;;21.60;98.20;;;;;;5006826;28;20038;-75
2022/07/07 05:19:18;;;;;;;6.05;1.95;;;21.70;98.20;;;;;;5006406;28;20044;-76
2022/07/07 05:21:44;;;;;;;2.65;1.60;;;21.80;98.30;;;;;;5004772;28;20521;-76
2022/07/07 05:24:10;;;;;;;3.38;1.77;;;21.60;98.10;;;;;;5004740;28;20022;-75
2022/07/07 05:26:36;;;;;;;4.13;1.90;;;21.50;98.20;;;;;;5003639;28;20034;-75
2022/07/07 05:29:02;;;;;;;2.72;1.50;;;21.30;98.40;;;;;;5003377;28;20119;-74
2022/07/07 05:31:27;;;;;;;3.70;2.10;;;21.30;98.60;;;;;;5002379;28;20465;-75
2022/07/07 05:33:53;;;;;;;2.83;1.60;;;21.40;98.60;;;;;;5006861;28;20103;-75
2022/07/07 05:36:19;;;;;;;4.07;1.90;;;21.40;98.70;;;;;;5005354;28;20056;-76
2022/07/07 05:38:45;;;;;;;4.70;2.00;;;21.40;98.40;;;;;;5011553;28;20218;-76
2022/07/07 05:41:11;;;;;;;3.17;1.98;;;21.40;98.50;;;;;;5008407;28;20058;-75
2022/07/07 05:43:37;;;;;;;3.53;1.52;;;21.40;98.70;;;;;;5005333;28;20058;-76
2022/07/07 05:46:03;;;;;;;5.22;2.15;;;21.50;98.70;;;;;;5006939;28;20061;-75
2022/07/07 05:48:28;;;;;;;3.17;1.65;;;21.50;98.80;;;;;;5005362;28;20113;-75
2022/07/07 05:50:54;;;;;;;5.25;1.85;;;21.50;98.60;;;;;;5006117;28;20106;-75
2022/07/07 05:53:20;;;;;;;4.80;1.80;;;21.50;98.50;;;;;;5002516;28;20099;-75
2022/07/07 05:55:45;;;;;;;3.72;1.80;;;21.60;98.60;;;;;;5004940;28;20908;-75
2022/07/07 05:58:12;;;;;;;4.68;1.70;;;21.60;97.90;;;;;;5003488;28;20057;-76
2022/07/07 06:00:38;;;;;;;5.13;1.73;;;21.60;98.20;;;;;;5004498;28;20052;-76
2022/07/07 06:03:04;;;;;;;3.90;1.80;;;21.70;98.70;;;;;;5006281;28;20034;-75
2022/07/07 06:05:29;;;;;;;3.53;1.98;;;21.70;98.10;;;;;;5005829;28;20033;-75
2022/07/07 06:07:55;;;;;;;3.53;1.95;;;21.70;97.90;;;;;;5010086;28;20086;-74
2022/07/07 06:10:21;;;;;;;6.88;1.75;;;21.80;97.60;;;;;;5005859;28;20041;-74
2022/07/07 06:12:48;;;;;;;3.85;1.90;;;21.90;97.90;;;;;;5001962;28;20037;-75
2022/07/07 06:15:14;;;;;;;2.83;1.58;;;22.10;98.00;;;;;;5004491;28;20632;-75
2022/07/07 06:17:40;;;;;;;6.22;1.65;;;22.10;97.90;;;;;;5005254;28;20101;-75
2022/07/07 06:20:07;;;;;;;5.28;1.98;;;22.10;98.00;;;;;;5004452;28;20018;-74
2022/07/07 06:22:33;;;;;;;3.83;1.90;;;22.10;98.50;;;;;;5000359;28;20092;-75
2022/07/07 06:24:58;;;;;;;3.28;1.55;;;22.10;98.10;;;;;;5001868;28;20045;-75
2022/07/07 06:27:25;;;;;;;3.10;1.50;;;22.00;98.40;;;;;;5000224;28;20042;-75
2022/07/07 06:29:51;;;;;;;8.13;2.05;;;22.00;98.30;;;;;;5004607;28;20033;-74
2022/07/07 06:32:17;;;;;;;3.53;1.83;;;22.10;98.00;;;;;;5005614;28;20514;-75
2022/07/07 06:34:43;;;;;;;5.53;2.35;;;22.20;97.90;;;;;;5009612;28;20042;-75
2022/07/07 06:37:09;;;;;;;6.05;2.10;;;22.20;97.80;;;;;;5006163;28;20034;-74
2022/07/07 06:39:35;;;;;;;3.08;1.90;;;22.20;98.10;;;;;;5007397;28;20521;-74
2022/07/07 06:42:01;;;;;;;3.85;1.88;;;22.20;98.40;;;;;;5020558;28;20560;-75
2022/07/07 06:44:31;;;;;;;4.25;1.70;;;22.10;98.40;;;;;;5007598;28;20699;-75
2022/07/07 06:47:00;;;;;;;5.78;2.30;;;22.20;98.40;;;;;;5005151;28;20411;-75
2022/07/07 06:49:26;;;;;;;3.80;2.00;;;22.10;98.50;;;;;;5004507;28;20097;-75
2022/07/07 06:51:52;;;;;;;3.63;1.80;;;22.20;98.30;;;;;;5003646;28;20065;-75
2022/07/07 06:54:18;;;;;;;3.35;1.60;;;22.20;98.10;;;;;;4985818;28;20479;-75
2022/07/07 06:56:44;;;;;;;5.43;2.13;;;22.30;98.40;;;;;;5005691;28;20038;-74
2022/07/07 06:59:09;;;;;;;4.25;2.60;;;22.40;98.30;;;;;;5003607;28;20036;-76
2022/07/07 07:01:35;;;;;;;10.95;2.30;;;22.50;98.30;;;;;;5003423;28;20030;-75
2022/07/07 07:04:01;;;;;;;8.63;2.70;;;22.60;98.20;;;;;;5004890;28;20088;-75
2022/07/07 07:06:28;;;;;;;3.10;1.75;;;22.70;97.90;;;;;;4997897;28;20487;-75
2022/07/07 07:08:55;;;;;;;3.72;2.20;;;22.80;97.80;;;;;;5003561;28;20456;-75
2022/07/07 07:11:21;;;;;;;5.85;2.17;;;23.00;97.70;;;;;;5003013;28;20037;-75
2022/07/07 07:13:47;;;;;;;4.20;2.17;;;23.20;97.60;;;;;;5001483;28;20656;-75
2022/07/07 07:16:15;;;;;;;6.90;2.50;;;23.30;97.70;;;;;;5003121;28;20040;-77
2022/07/07 07:18:40;;;;;;;4.32;2.00;;;23.60;96.90;;;;;;5010461;28;20025;-76
2022/07/07 07:21:06;;;;;;;5.30;2.00;;;23.80;96.80;;;;;;5003630;28;20040;-78
2022/07/07 07:23:32;;;;;;;7.85;2.22;;;24.00;96.80;;;;;;5002720;28;20074;-75
2022/07/07 07:25:57;;;;;;;4.68;1.90;;;24.20;96.50;;;;;;5004615;28;20599;-77
2022/07/07 07:28:23;;;;;;;6.63;1.98;;;24.30;96.30;;;;;;5002882;28;20106;-75
2022/07/07 07:30:49;;;;;;;3.60;1.95;;;24.50;96.30;;;;;;5006556;28;20148;-78
2022/07/07 07:33:15;;;;;;;7.35;2.03;;;24.80;95.80;;;;;;5004263;28;20088;-77
2022/07/07 07:35:40;;;;;;;2.97;1.65;;;25.30;95.40;;;;;;5004489;28;20045;-74
2022/07/07 07:38:06;;;;;;;6.55;2.45;;;26.00;94.50;;;;;;5000591;28;20623;-77
2022/07/07 07:40:32;;;;;;;5.47;2.17;;;26.70;93.40;;;;;;5005371;28;20030;-76
2022/07/07 07:42:58;;;;;;;3.35;1.77;;;27.10;92.40;;;;;;5001609;28;20037;-75
2022/07/07 07:45:24;;;;;;;2.80;1.63;;;27.80;91.80;;;;;;5003534;28;20423;-75
2022/07/07 07:47:49;;;;;;;3.72;1.83;;;28.20;91.50;;;;;;5002647;28;20033;-74
2022/07/07 07:50:17;;;;;;;5.05;1.70;;;28.30;91.00;;;;;;5004701;28;20229;-75
2022/07/07 07:52:44;;;;;;;4.88;2.10;;;28.20;91.20;;;;;;5001760;28;20052;-74
2022/07/07 07:55:13;;;;;;;3.10;1.60;;;28.00;91.20;;;;;;5004129;28;20121;-76
2022/07/07 07:57:40;;;;;;;4.90;2.03;;;27.80;91.70;;;;;;5000270;28;20034;-76
2022/07/07 08:00:08;;;;;;;3.85;1.80;;;27.50;91.10;;;;;;5001175;28;20030;-75
2022/07/07 08:02:34;;;;;;;3.47;1.65;;;27.40;91.50;;;;;;5000886;28;20441;-76
2022/07/07 08:05:01;;;;;;;3.55;1.67;;;27.00;91.70;;;;;;5002377;28;20026;-76
2022/07/07 08:07:26;;;;;;;4.28;1.95;;;26.80;91.70;;;;;;5001884;28;20509;-75
2022/07/07 08:09:52;;;;;;;3.45;2.00;;;26.50;92.10;;;;;;5003535;28;20056;-75
2022/07/07 08:12:18;;;;;;;5.00;1.67;;;26.40;92.00;;;;;;5001922;28;20059;-76
2022/07/07 08:14:44;;;;;;;4.70;1.90;;;26.70;92.00;;;;;;5005865;28;20133;-76
2022/07/07 08:17:10;;;;;;;5.07;1.90;;;26.90;91.70;;;;;;5004702;28;20038;-76
2022/07/07 08:19:36;;;;;;;3.10;1.50;;;26.90;91.30;;;;;;5002252;28;20073;-77
2022/07/07 08:22:02;;;;;;;2.80;1.45;;;27.10;91.00;;;;;;4999351;28;20114;-77
2022/07/07 08:24:28;;;;;;;6.40;1.60;;;27.10;90.60;;;;;;5001477;28;20051;-76
2022/07/07 08:26:54;;;;;;;3.58;1.58;;;27.10;90.30;;;;;;5000105;28;20867;-75
2022/07/07 08:29:19;;;;;;;3.95;1.58;;;27.00;90.20;;;;;;4996154;28;20065;-76
2022/07/07 08:31:45;;;;;;;8.45;1.73;;;26.80;90.20;;;;;;5003391;28;21062;-76
2022/07/07 08:34:11;;;;;;;3.20;1.80;;;26.80;91.00;;;;;;5000505;28;20490;-76
2022/07/07 08:36:37;;;;;;;4.78;1.48;;;26.80;91.40;;;;;;5002038;28;20022;-76
2022/07/07 08:39:03;;;;;;;2.72;1.60;;;26.90;90.50;;;;;;5002442;28;20448;-75
2022/07/07 08:41:29;;;;;;;4.80;1.90;;;27.30;90.90;;;;;;5002829;28;20030;-75
2022/07/07 08:43:59;;;;;;;5.10;2.22;;;27.50;90.40;;;;;;5002466;28;21051;-76
2022/07/07 08:46:24;;;;;;;5.03;1.80;;;27.30;90.30;;;;;;5003133;28;20037;-76
2022/07/07 08:48:52;;;;;;;5.28;1.60;;;27.00;90.50;;;;;;5004192;28;20038;-76
2022/07/07 08:51:20;;;;;;;5.03;1.63;;;27.20;90.30;;;;;;5004265;28;20615;-76
2022/07/07 08:53:47;;;;;;;2.80;1.70;;;27.30;90.40;;;;;;5003515;28;20021;-76
2022/07/07 08:56:15;;;;;;;4.15;1.63;;;27.80;90.10;;;;;;5003773;28;20118;-76
2022/07/07 08:58:42;;;;;;;4.25;1.77;;;27.70;89.90;;;;;;4998546;28;20105;-76
2022/07/07 09:01:08;;;;;;;2.83;1.73;;;27.50;90.30;;;;;;5003533;28;20697;-76
2022/07/07 09:03:34;;;;;;;3.03;1.50;;;27.50;90.10;;;;;;5004511;28;20030;-76
2022/07/07 09:06:01;;;;;;;2.85;1.50;;;27.20;90.40;;;;;;5001827;28;20062;-76
2022/07/07 09:08:28;;;;;;;3.47;1.55;;;27.70;91.20;;;;;;5003678;28;20026;-76
2022/07/07 09:10:54;;;;;;;5.50;1.73;;;27.70;88.80;;;;;;5006785;28;20037;-76
2022/07/07 09:13:30;;;;;;;2.92;2.00;;;27.80;89.00;;;;;;5007035;28;20629;-76
2022/07/07 09:16:12;;;;;;;3.78;1.70;;;27.70;88.50;;;;;;5006322;28;20551;-76
2022/07/07 09:18:41;;;;;;;2.70;1.65;;;28.00;88.80;;;;;;5007895;28;20034;-76
2022/07/07 09:21:31;;;;;;;3.83;1.77;;;28.00;88.70;;;;;;5007776;28;20034;-76
2022/07/07 09:24:02;;;;;;;4.07;1.63;;;28.00;88.60;;;;;;5006984;28;20511;-76
2022/07/07 09:26:34;;;;;;;4.18;1.50;;;27.90;87.70;;;;;;5007672;28;20037;-76
2022/07/07 09:29:00;;;;;;;2.97;1.55;;;28.00;89.10;;;;;;5006990;28;20041;-76
2022/07/07 09:31:46;;;;;;;3.58;1.85;;;28.00;90.10;;;;;;5007802;28;20610;-76
2022/07/07 09:34:12;;;;;;;3.05;1.60;;;28.30;87.00;;;;;;5007034;28;20056;-76
2022/07/07 09:39:22;;;;;;;3.92;1.50;;;29.20;87.10;;;;;;5007624;28;20120;-76
2022/07/07 09:41:48;;;;;;;3.15;1.60;;;29.60;87.40;;;;;;5007292;28;20061;-76
2022/07/07 09:44:13;;;;;;;4.20;1.50;;;29.50;88.70;;;;;;5006623;28;20037;-76
2022/07/07 09:46:39;;;;;;;4.75;1.50;;;29.50;90.10;;;;;;5007470;28;20255;-76
2022/07/07 09:49:09;;;;;;;2.72;1.90;;;29.60;86.00;;;;;;4988829;28;20066;-76
2022/07/07 09:51:35;;;;;;;3.90;1.75;;;29.70;88.40;;;;;;5007192;28;20499;-76
2022/07/07 09:54:06;;;;;;;3.63;1.50;;;29.70;86.40;;;;;;5006889;28;20042;-76
2022/07/07 09:56:33;;;;;;;4.25;1.65;;;29.60;84.50;;;;;;5007181;28;20120;-76
2022/07/07 09:59:00;;;;;;;3.08;1.77;;;29.60;85.70;;;;;;5002642;28;20044;-76
2022/07/07 10:01:28;;;;;;;4.65;1.90;;;29.90;85.70;;;;;;5006650;28;20030;-76
2022/07/07 10:03:58;;;;;;;3.15;1.70;;;29.30;85.30;;;;;;5006202;28;20041;-76
2022/07/07 10:06:26;;;;;;;3.15;1.80;;;29.20;86.60;;;;;;5006776;28;20397;-76
2022/07/07 10:08:58;;;;;;;2.80;1.55;;;29.00;84.50;;;;;;5005649;28;20068;-76
2022/07/07 10:11:35;;;;;;;1.95;1.10;;;29.10;85.10;;;;;;5006406;28;20046;-76
2022/07/07 10:14:09;;;;;;;3.10;1.80;;;29.10;84.90;;;;;;5006869;28;20034;-76
2022/07/07 10:16:39;;;;;;;4.78;1.73;;;28.90;85.60;;;;;;5006879;28;20038;-76
2022/07/07 10:19:06;;;;;;;4.00;1.50;;;29.00;85.00;;;;;;5006821;28;20030;-76
2022/07/07 10:21:32;;;;;;;2.80;1.60;;;29.10;86.60;;;;;;5006434;28;20040;-76
2022/07/07 10:23:59;;;;;;;3.88;1.67;;;29.20;85.90;;;;;;5006366;28;20057;-76
2022/07/07 10:26:49;;;;;;;2.75;1.23;;;28.80;83.50;;;;;;5004258;28;20026;-76
2022/07/07 10:29:15;;;;;;;2.40;1.20;;;28.90;84.80;;;;;;5007398;28;20049;-76
2022/07/07 10:31:49;;;;;;;2.58;1.30;;;28.90;82.90;;;;;;5007684;28;20045;-75
2022/07/07 10:34:14;;;;;;;2.60;0.90;;;29.90;84.30;;;;;;5008793;28;20038;-76
2022/07/07 10:36:46;;;;;;;3.92;1.48;;;30.50;80.80;;;;;;5009348;28;20041;-76
2022/07/07 10:39:21;;;;;;;4.28;1.55;;;29.80;81.80;;;;;;5008863;28;20029;-76
2022/07/07 10:42:04;;;;;;;3.85;1.48;;;30.10;84.30;;;;;;5009376;28;20210;-76
2022/07/07 10:44:32;;;;;;;2.45;1.23;;;29.90;82.50;;;;;;5009582;28;20044;-76
2022/07/07 10:47:18;;;;;;;6.00;1.67;;;30.10;83.10;;;;;;5009099;28;20072;-76
2022/07/07 10:49:48;;;;;;;11.60;1.70;;;29.50;80.50;;;;;;4996405;28;20381;-76
2022/07/07 10:52:18;;;;;;;4.07;1.30;;;29.60;81.50;;;;;;5007734;28;20110;-77
2022/07/07 10:54:55;;;;;;;4.65;1.65;;;29.20;81.80;;;;;;5009363;28;20045;-76
2022/07/07 10:57:26;;;;;;;3.40;1.85;;;29.10;82.00;;;;;;5006119;28;20076;-76
2022/07/07 11:00:08;;;;;;;5.28;2.33;;;28.70;82.20;;;;;;5005259;28;20034;-76
2022/07/07 11:02:37;;;;;;;4.97;1.60;;;28.80;83.60;;;;;;5006164;28;20052;-76
2022/07/07 11:05:15;;;;;;;2.50;1.63;;;28.90;83.40;;;;;;5008655;28;20495;-76
2022/07/07 11:08:03;;;;;;;3.70;1.55;;;29.10;82.60;;;;;;5005006;28;20034;-75
2022/07/07 11:10:46;;;;;;;2.90;1.90;;;29.00;83.40;;;;;;5003359;28;20702;-76
2022/07/07 11:13:33;;;;;;;2.38;1.38;;;28.90;84.40;;;;;;5009035;28;20062;-76
2022/07/07 11:16:18;;;;;;;5.13;1.50;;;29.10;84.10;;;;;;5008898;28;20100;-76
2022/07/07 11:18:49;;;;;;;4.32;1.75;;;29.30;82.60;;;;;;5008384;28;20531;-76
2022/07/07 11:21:15;;;;;;;3.55;1.90;;;29.60;83.10;;;;;;5007918;28;20038;-75
2022/07/07 11:23:54;;;;;;;3.13;1.38;;;29.50;82.60;;;;;;5007959;28;20512;-76
2022/07/07 11:26:23;;;;;;;2.45;1.40;;;29.40;82.70;;;;;;5008458;28;20066;-75
2022/07/07 11:28:51;;;;;;;7.35;1.60;;;29.40;82.40;;;;;;5007278;28;20033;-75
2022/07/07 11:31:16;;;;;;;2.42;1.20;;;29.40;81.90;;;;;;5022390;28;20092;-75
2022/07/07 11:33:48;;;;;;;3.45;1.85;;;29.40;81.50;;;;;;5015761;28;20033;-75
2022/07/07 11:36:19;;;;;;;3.05;1.45;;;29.30;81.40;;;;;;5005980;28;20091;-75
2022/07/07 11:38:46;;;;;;;3.85;1.55;;;29.50;81.80;;;;;;5004045;28;20033;-75
2022/07/07 11:41:12;;;;;;;2.22;1.38;;;29.50;81.10;;;;;;5005269;28;20563;-75
2022/07/07 11:43:38;;;;;;;3.70;1.40;;;29.70;81.10;;;;;;5005909;28;20124;-75
2022/07/07 11:46:04;;;;;;;6.68;1.38;;;29.80;83.10;;;;;;5006519;28;20113;-75
2022/07/07 11:48:41;;;;;;;4.30;2.08;;;29.80;82.00;;;;;;5008307;28;20038;-75
2022/07/07 11:51:07;;;;;;;2.70;1.40;;;29.60;80.50;;;;;;5007768;28;20041;-75
2022/07/07 11:53:33;;;;;;;3.53;1.48;;;29.90;79.90;;;;;;5008364;28;20098;-75
2022/07/07 11:55:59;;;;;;;2.33;1.23;;;30.40;80.90;;;;;;5007245;28;20042;-76
2022/07/07 11:58:25;;;;;;;3.15;1.45;;;30.70;80.40;;;;;;5004715;28;20030;-75
2022/07/07 12:00:54;;;;;;;5.00;1.63;;;30.60;81.40;;;;;;5007299;28;20076;-75
2022/07/07 12:03:28;;;;;;;5.82;1.73;;;30.00;81.90;;;;;;5007670;28;20026;-75
2022/07/07 12:05:54;;;;;;;2.60;1.52;;;29.60;80.70;;;;;;5007310;28;20511;-75
2022/07/07 12:08:19;;;;;;;3.92;1.77;;;29.30;81.70;;;;;;5005756;28;20038;-75
2022/07/07 12:10:52;;;;;;;6.13;2.05;;;28.70;82.90;;;;;;5005667;28;20041;-75
2022/07/07 12:13:19;;;;;;;3.63;1.20;;;28.10;84.00;;;;;;5007497;28;20033;-75
2022/07/07 12:15:46;;;;;;;2.33;1.40;;;27.60;84.40;;;;;;5007550;28;20045;-74
2022/07/07 12:18:13;;;;;;;3.17;1.40;;;27.30;84.80;;;;;;5007592;28;20080;-75
2022/07/07 12:20:40;;;;;;;6.32;1.58;;;26.70;85.70;;;;;;5006415;28;20253;-75
2022/07/07 12:23:16;;;;;;;2.95;1.40;;;26.50;87.40;;;;;;5007073;28;20054;-74
2022/07/07 12:25:42;;;;;;;4.32;1.38;;;26.30;89.00;;;;;;5000573;28;20041;-75
2022/07/07 12:28:09;;;;;;;5.88;2.00;;;26.30;87.10;;;;;;5004068;28;20034;-75
2022/07/07 12:30:56;;;;;;;9.85;1.75;;;26.70;90.50;;;;;;5007392;28;20084;-75
2022/07/07 12:33:36;;;;;;;2.70;1.50;;;27.70;91.10;;;;;;5000508;28;20091;-77
2022/07/07 12:36:15;;;;;;;3.28;1.65;;;28.00;86.50;;;;;;5005718;28;20041;-76
2022/07/07 12:38:48;;;;;;;3.10;1.38;;;28.10;85.40;;;;;;5006875;28;20040;-76
2022/07/07 12:41:22;;;;;;;4.38;1.83;;;28.30;86.30;;;;;;5012659;28;20105;-75
2022/07/07 12:43:47;;;;;;;;;;;29.10;88.30;;;;;;5020273;28;20056;-76
2022/07/07 12:46:13;;;;;;;4.78;1.63;;;29.00;87.40;;;;;;5004622;28;19949;-76
2022/07/07 12:48:48;;;;;;;2.33;1.30;;;28.70;88.00;;;;;;5008857;28;20045;-76
2022/07/07 12:51:14;;;;;;;7.65;1.77;;;28.60;87.70;;;;;;5008061;28;20045;-76
2022/07/07 12:53:42;;;;;;;3.67;1.70;;;28.70;86.10;;;;;;5010023;28;20040;-76